Terminal Aerodrome Forecast
Issued by NWS Twin Cities, MN

Home | Current Version | Previous Version | Text Only | Print | Product List | Glossary On
Versions: 1 2 3 4 5 6 7 8 9 10 11 12 13 14 15 16 17 18 19 20 21 22 23 24 25
000
FTUS43 KMPX 110500
TAFMSP
TAF
KMSP 110530Z 1106/1212 16010KT P6SM VCSH SCT050 BKN090 OVC250
      TEMPO 1111/1114 4SM TSRA OVC035CB
     FM111500 19011KT P6SM -SHRA BKN035 OVC070
     FM111800 21010KT P6SM BKN040 OVC070=

USA.gov is the U.S. government's official web portal to all federal, state and local government web resources and services.